This is the latest recevied weather packets stored in our database for station/object KMASWX. If no packets are shown the sender has not sent any weather packets the latest 1 day(s).
| Time | Temp. | Humidity | Pressure | Rain* | Wind** | Luminosity | Snow |
|---|---|---|---|---|---|---|---|
| 1836274675 | 17.22° C | 40% | - | 0 mm | 0 m/s | - | - |
| 1836274534 | 16.67° C | 39% | - | 0 mm | 0.45 m/s, 178° | - | - |
| 1836274369 | 17.22° C | 39% | - | 0 mm | 1.34 m/s, 222° | - | - |
| 1836274230 | 17.22° C | 39% | - | 0 mm | 0.45 m/s, 154° | - | - |
| 1778050822 | 16.11° C | 46% | - | 0 mm | 0 m/s | - | - |
| 1778050518 | 16.11° C | 45% | - | 0 mm | 0 m/s | - | - |
| 1778050212 | 15.56° C | 45% | - | 0 mm | 0 m/s | - | - |
| 1778049907 | 16.11° C | 46% | - | 0 mm | 0 m/s | - | - |
| 1778049297 | 15.56° C | 45% | - | 0 mm | 0.89 m/s, 341° | - | - |
| 1778048382 | 16.11° C | 44% | - | 0 mm | 0 m/s | - | - |
| 1778048078 | 16.67° C | 44% | - | 0 mm | 0 m/s | - | - |
| 1778047773 | 16.67° C | 44% | - | 0 mm | 1.79 m/s, 15° | - | - |
| 1778047470 | 17.22° C | 43% | - | 0 mm | 0 m/s | - | - |
| 1778046559 | 16.67° C | 43% | - | 0 mm | 1.79 m/s, 23° | - | - |
| 1778045947 | 17.78° C | 42% | - | 0 mm | 0 m/s | - | - |
| 1778045641 | 17.78° C | 42% | - | 0 mm | 0 m/s | - | - |
| 1778045337 | 17.22° C | 42% | - | 0 mm | 0.89 m/s, 9° | - | - |
| 1778045033 | 17.22° C | 42% | - | 0 mm | 1.79 m/s, 8° | - | - |
| 1778044423 | 17.78° C | 41% | - | 0 mm | 0 m/s | - | - |
| 1778044119 | 18.33° C | 40% | - | 0 mm | 1.79 m/s, 358° | - | - |
| 1778043815 | 18.89° C | 39% | - | 0 mm | 0.45 m/s, 261° | - | - |
| 1778043511 | 19.44° C | 38% | - | 0 mm | 1.34 m/s, 7° | - | - |
| 1778043207 | 19.44° C | 37% | - | 0 mm | 0 m/s | - | - |
| 1778042904 | 19.44° C | 37% | - | 0 mm | 1.34 m/s, 2° | - | - |
| 1778042599 | 19.44° C | 38% | - | 0 mm | 1.79 m/s, 7° | - | - |
* Rain latest 24 hours (hover to see other rain measurements)
** Current wind speed in m/s (hover to see current wind gust speed)